Time;durP1;ratioP1;P1;durP2;ratioP2;P2;SDS_P1;SDS_P2;PMS_P1;PMS_P2;Temp;Humidity;BMP_temperature;BMP_pressure;BME280_temperature;BME280_humidity;BME280_pressure;Samples;Min_cycle;Max_cycle;Signal;HPM_P1;HPM_P2
2022/05/24 00:01:19;;;;;;;;;;;16.90;98.20;;;;;;4592939;19;19968;-24
2022/05/24 00:02:50;;;;;;;;;;;16.90;98.20;;;;;;4593117;19;19919;-24
2022/05/24 00:04:21;;;;;;;;;;;16.90;98.30;;;;;;4593197;19;19910;-24
2022/05/24 00:05:52;;;;;;;;;;;17.00;98.30;;;;;;4593786;19;19963;-24
2022/05/24 00:07:23;;;;;;;;;;;16.90;98.30;;;;;;4593158;19;19982;-25
2022/05/24 00:08:54;;;;;;;;;;;17.00;98.30;;;;;;4591917;19;19915;-24
2022/05/24 00:10:26;;;;;;;;;;;17.00;98.40;;;;;;4593388;19;19935;-24
2022/05/24 00:11:57;;;;;;;;;;;17.00;98.40;;;;;;4592981;19;19915;-23
2022/05/24 00:13:28;;;;;;;;;;;16.90;98.40;;;;;;4592638;19;19923;-25
2022/05/24 00:16:48;;;;;;;;;;;16.90;98.40;;;;;;4592688;19;20266;-24
2022/05/24 00:18:20;;;;;;;;;;;16.90;98.40;;;;;;4593579;19;19907;-24
2022/05/24 00:19:51;;;;;;;;;;;16.90;98.40;;;;;;4593044;19;19970;-24
2022/05/24 00:21:22;;;;;;;;;;;16.90;98.40;;;;;;4592937;19;19938;-24
2022/05/24 00:22:53;;;;;;;;;;;16.90;98.40;;;;;;4592215;19;19915;-25
2022/05/24 00:24:24;;;;;;;;;;;16.90;98.50;;;;;;4593285;19;19939;-24
2022/05/24 00:25:56;;;;;;;;;;;16.90;98.40;;;;;;4592401;19;19974;-24
2022/05/24 00:27:27;;;;;;;;;;;16.90;98.40;;;;;;4589498;19;20389;-24
2022/05/24 00:28:58;;;;;;;;;;;16.90;98.40;;;;;;4591386;19;19943;-24
2022/05/24 00:30:29;;;;;;;;;;;16.90;98.40;;;;;;4591449;19;19944;-23
2022/05/24 00:32:00;;;;;;;;;;;16.90;98.50;;;;;;4591289;19;19940;-25
2022/05/24 00:33:33;;;;;;;;;;;16.90;98.50;;;;;;4592265;19;19923;-24
2022/05/24 00:35:04;;;;;;;;;;;16.90;98.50;;;;;;4592782;19;19925;-24
2022/05/24 00:36:35;;;;;;;;;;;16.90;98.50;;;;;;4592436;19;20273;-24
2022/05/24 00:38:07;;;;;;;;;;;16.90;98.50;;;;;;4591255;19;19982;-24
2022/05/24 00:39:38;;;;;;;;;;;16.90;98.60;;;;;;4591243;19;19922;-24
2022/05/24 00:41:35;;;;;;;;;;;16.90;98.60;;;;;;4592413;19;19914;-24
2022/05/24 00:43:25;;;;;;;;;;;16.90;98.60;;;;;;4591019;19;20241;-24
2022/05/24 00:45:07;;;;;;;;;;;16.90;98.60;;;;;;4592498;19;19925;-24
2022/05/24 00:46:56;;;;;;;;;;;16.90;98.70;;;;;;4591114;19;20326;-23
2022/05/24 00:48:28;;;;;;;;;;;16.90;98.60;;;;;;4591634;19;20329;-24
2022/05/24 00:50:02;;;;;;;;;;;16.90;98.70;;;;;;4591134;19;19939;-24
2022/05/24 00:51:34;;;;;;;;;;;16.90;98.70;;;;;;4591447;19;19975;-24
2022/05/24 00:53:06;;;;;;;;;;;16.90;98.70;;;;;;4590132;19;19925;-25
2022/05/24 00:54:37;;;;;;;;;;;16.90;98.70;;;;;;4591992;19;19974;-24
2022/05/24 00:56:08;;;;;;;;;;;16.90;98.70;;;;;;4591508;19;19910;-24
2022/05/24 00:57:44;;;;;;;;;;;16.90;98.70;;;;;;4592374;19;19917;-23
2022/05/24 00:59:20;;;;;;;;;;;16.90;98.80;;;;;;4590785;19;19923;-24
2022/05/24 01:00:51;;;;;;;;;;;16.90;98.80;;;;;;4590871;19;19970;-24
2022/05/24 01:02:22;;;;;;;;;;;16.90;98.80;;;;;;4591816;19;19907;-24
2022/05/24 01:03:53;;;;;;;;;;;16.90;98.80;;;;;;4591215;19;19915;-24
2022/05/24 01:05:27;;;;;;;;;;;16.90;98.80;;;;;;4590477;19;19925;-24
2022/05/24 01:06:58;;;;;;;;;;;16.90;98.80;;;;;;4591221;19;20345;-24
2022/05/24 01:08:32;;;;;;;;;;;16.90;98.80;;;;;;4591930;19;19914;-24
2022/05/24 01:10:06;;;;;;;;;;;16.90;98.80;;;;;;4591582;19;19946;-24
2022/05/24 01:11:38;;;;;;;;;;;16.90;98.80;;;;;;4590423;19;19925;-24
2022/05/24 01:13:10;;;;;;;;;;;17.00;98.90;;;;;;4589211;19;20381;-24
2022/05/24 01:14:40;;;;;;;;;;;16.90;98.80;;;;;;4592097;19;19914;-24
2022/05/24 01:16:11;;;;;;;;;;;16.90;98.80;;;;;;4591033;19;19944;-24
2022/05/24 01:17:42;;;;;;;;;;;16.90;98.80;;;;;;4590281;19;19933;-25
2022/05/24 01:19:16;;;;;;;;;;;16.90;98.80;;;;;;4589885;19;19911;-24
2022/05/24 01:20:49;;;;;;;;;;;16.90;98.90;;;;;;4588688;19;20015;-24
2022/05/24 01:22:26;;;;;;;;;;;16.90;99.00;;;;;;4589684;19;19994;-24
2022/05/24 01:23:57;;;;;;;;;;;16.90;99.00;;;;;;4588555;19;20451;-24
2022/05/24 01:25:29;;;;;;;;;;;16.80;99.00;;;;;;4588265;19;19966;-24
2022/05/24 01:27:00;;;;;;;;;;;16.80;99.10;;;;;;4590369;19;19927;-24
2022/05/24 01:28:42;;;;;;;;;;;16.80;99.10;;;;;;4588197;19;19932;-22
2022/05/24 01:30:13;;;;;;;;;;;16.80;99.10;;;;;;4590266;19;19929;-24
2022/05/24 01:37:13;;;;;;;;;;;16.80;99.20;;;;;;4588962;19;19934;-24
2022/05/24 01:38:51;;;;;;;;;;;16.70;99.30;;;;;;4587545;19;19923;-24
2022/05/24 01:40:22;;;;;;;;;;;16.70;99.30;;;;;;4589748;19;19915;-23
2022/05/24 01:41:53;;;;;;;;;;;16.70;99.30;;;;;;4589374;19;19965;-24
2022/05/24 01:43:26;;;;;;;;;;;16.80;99.40;;;;;;4590061;19;19922;-24
2022/05/24 01:45:16;;;;;;;;;;;16.70;99.40;;;;;;4588611;19;19923;-24
2022/05/24 01:46:47;;;;;;;;;;;16.70;99.30;;;;;;4589700;19;19923;-24
2022/05/24 01:48:19;;;;;;;;;;;16.70;99.30;;;;;;4588631;19;19922;-24
2022/05/24 01:49:51;;;;;;;;;;;16.70;99.40;;;;;;4589812;19;19923;-22
2022/05/24 01:51:23;;;;;;;;;;;16.70;99.40;;;;;;4589660;19;19921;-25
2022/05/24 01:52:55;;;;;;;;;;;16.70;99.40;;;;;;4588477;19;19918;-24
2022/05/24 01:54:26;;;;;;;;;;;16.70;99.40;;;;;;4591143;19;19918;-24
2022/05/24 01:55:57;;;;;;;;;;;16.70;99.40;;;;;;4588731;19;20343;-24
2022/05/24 01:57:30;;;;;;;;;;;16.70;99.40;;;;;;4589707;19;19923;-23
2022/05/24 01:59:01;;;;;;;;;;;16.70;99.40;;;;;;4590303;19;20393;-24
2022/05/24 02:00:32;;;;;;;;;;;16.70;99.40;;;;;;4591428;19;19925;-23
2022/05/24 02:02:03;;;;;;;;;;;16.70;99.40;;;;;;4590919;19;19911;-23
2022/05/24 02:03:34;;;;;;;;;;;16.70;99.50;;;;;;4590112;19;19935;-24
2022/05/24 02:05:05;;;;;;;;;;;16.70;99.40;;;;;;4589522;19;19922;-24
2022/05/24 02:06:36;;;;;;;;;;;16.70;99.40;;;;;;4591145;19;19915;-24
2022/05/24 02:08:07;;;;;;;;;;;16.70;99.40;;;;;;4590731;19;20473;-24
2022/05/24 02:09:42;;;;;;;;;;;16.80;99.40;;;;;;4591056;19;20249;-24
2022/05/24 02:11:13;;;;;;;;;;;16.80;99.30;;;;;;4590499;19;19926;-24
2022/05/24 02:12:45;;;;;;;;;;;16.80;99.30;;;;;;4591496;19;20263;-23
2022/05/24 02:14:20;;;;;;;;;;;16.90;99.40;;;;;;4589000;19;19923;-24
2022/05/24 02:15:52;;;;;;;;;;;16.90;99.60;;;;;;4589868;19;19936;-24
2022/05/24 02:17:23;;;;;;;;;;;16.90;99.30;;;;;;4588481;19;19922;-24
2022/05/24 02:18:54;;;;;;;;;;;16.90;99.30;;;;;;4588086;19;19930;-24
2022/05/24 02:20:38;;;;;;;;;;;16.90;99.30;;;;;;4590274;19;19934;-24
2022/05/24 02:22:11;;;;;;;;;;;16.90;99.30;;;;;;4588962;19;19922;-24
2022/05/24 02:23:43;;;;;;;;;;;16.90;99.60;;;;;;4589697;19;19922;-24
2022/05/24 02:25:15;;;;;;;;;;;16.90;99.40;;;;;;4588628;19;20372;-24
2022/05/24 02:26:46;;;;;;;;;;;16.90;99.30;;;;;;4590990;19;20325;-24
2022/05/24 02:28:18;;;;;;;;;;;16.90;99.40;;;;;;4589977;19;19939;-24
2022/05/24 02:29:49;;;;;;;;;;;16.90;99.50;;;;;;4591126;19;19919;-23
2022/05/24 02:31:20;;;;;;;;;;;16.90;99.40;;;;;;4590276;19;19929;-24
2022/05/24 02:32:51;;;;;;;;;;;16.90;99.50;;;;;;4589629;19;19922;-24
2022/05/24 02:34:22;;;;;;;;;;;16.90;99.40;;;;;;4591094;19;20307;-23
2022/05/24 02:35:53;;;;;;;;;;;16.90;99.50;;;;;;4589533;19;19931;-24
2022/05/24 02:37:24;;;;;;;;;;;16.90;99.50;;;;;;4591201;19;19970;-24
2022/05/24 02:38:55;;;;;;;;;;;16.90;99.50;;;;;;4590061;19;19919;-24
2022/05/24 02:42:15;;;;;;;;;;;16.90;99.50;;;;;;4590522;19;19932;-24
2022/05/24 02:43:46;;;;;;;;;;;16.90;99.50;;;;;;4589392;19;19936;-24
2022/05/24 02:45:18;;;;;;;;;;;16.90;99.50;;;;;;4588282;19;19987;-24
2022/05/24 02:46:48;;;;;;;;;;;16.80;99.50;;;;;;4588575;19;19936;-23
2022/05/24 02:48:19;;;;;;;;;;;16.90;99.50;;;;;;4589746;19;19929;-24
2022/05/24 02:49:50;;;;;;;;;;;16.90;99.50;;;;;;4589559;19;19931;-24
2022/05/24 02:51:21;;;;;;;;;;;16.80;99.50;;;;;;4595436;19;19918;-24
2022/05/24 02:52:52;;;;;;;;;;;16.80;99.50;;;;;;4594465;19;20265;-24
2022/05/24 02:54:23;;;;;;;;;;;16.80;99.50;;;;;;4592614;19;19927;-24
2022/05/24 02:55:54;;;;;;;;;;;16.80;99.50;;;;;;4593984;19;19918;-24
2022/05/24 02:57:25;;;;;;;;;;;16.80;99.50;;;;;;4593909;19;19923;-24
2022/05/24 02:58:56;;;;;;;;;;;16.80;99.60;;;;;;4594629;19;19980;-24
2022/05/24 03:00:27;;;;;;;;;;;16.80;99.60;;;;;;4595447;19;19918;-24
2022/05/24 03:01:58;;;;;;;;;;;16.80;99.50;;;;;;4592832;19;20356;-23
2022/05/24 03:03:29;;;;;;;;;;;16.80;99.60;;;;;;4594353;19;20354;-24
2022/05/24 03:05:00;;;;;;;;;;;16.80;99.60;;;;;;4594224;19;19922;-24
2022/05/24 03:09:33;;;;;;;;;;;16.80;99.60;;;;;;4591980;19;19918;-24
2022/05/24 03:10:12;;;;;;;;;;;16.80;99.70;;;;;;4593822;19;19925;-23
2022/05/24 03:15:22;;;;;;;;;;;16.80;99.70;;;;;;4595047;19;19949;-24
2022/05/24 03:16:53;;;;;;;;;;;16.80;99.70;;;;;;4593043;19;20279;-24
2022/05/24 03:18:24;;;;;;;;;;;16.80;99.80;;;;;;4594339;19;19942;-23
2022/05/24 03:19:55;;;;;;;;;;;16.80;99.80;;;;;;4593535;19;19930;-24
2022/05/24 03:21:26;;;;;;;;;;;16.80;99.90;;;;;;4593132;19;19921;-24
2022/05/24 03:22:57;;;;;;;;;;;16.80;99.90;;;;;;4593397;19;20257;-23
2022/05/24 03:24:27;;;;;;;;;;;16.80;99.90;;;;;;4593030;19;19931;-23
2022/05/24 03:25:58;;;;;;;;;;;16.80;99.90;;;;;;4594713;19;20257;-24
2022/05/24 03:27:30;;;;;;;;;;;16.80;99.90;;;;;;4593705;19;19919;-24
2022/05/24 03:29:00;;;;;;;;;;;16.80;99.90;;;;;;4592773;19;20340;-24
2022/05/24 03:30:32;;;;;;;;;;;16.80;99.90;;;;;;4592525;19;19929;-24
2022/05/24 03:32:03;;;;;;;;;;;16.80;99.90;;;;;;4593099;19;19919;-24
2022/05/24 03:33:34;;;;;;;;;;;16.80;99.90;;;;;;4594445;19;19922;-24
2022/05/24 03:35:06;;;;;;;;;;;16.80;99.90;;;;;;4593638;19;19911;-24
2022/05/24 03:36:37;;;;;;;;;;;16.80;99.90;;;;;;4593993;19;19918;-24
2022/05/24 03:38:07;;;;;;;;;;;16.80;99.90;;;;;;4594476;19;19919;-23
2022/05/24 03:39:39;;;;;;;;;;;16.80;99.90;;;;;;4592857;19;19993;-24
2022/05/24 03:41:09;;;;;;;;;;;16.80;99.90;;;;;;4594374;19;19919;-24
2022/05/24 03:42:40;;;;;;;;;;;16.80;99.90;;;;;;4593377;19;19919;-24
2022/05/24 03:44:11;;;;;;;;;;;16.80;99.90;;;;;;4594625;19;20273;-23
2022/05/24 03:45:43;;;;;;;;;;;16.80;99.90;;;;;;4591608;19;20305;-24
2022/05/24 03:47:13;;;;;;;;;;;16.80;99.90;;;;;;4593871;19;19921;-23
2022/05/24 03:48:44;;;;;;;;;;;16.80;99.90;;;;;;4593292;19;19986;-23
2022/05/24 03:50:15;;;;;;;;;;;16.80;99.90;;;;;;4593544;19;19939;-24
2022/05/24 03:51:46;;;;;;;;;;;16.80;99.90;;;;;;4592564;19;19957;-24
2022/05/24 03:53:17;;;;;;;;;;;16.80;99.90;;;;;;4592481;19;20325;-24
2022/05/24 03:54:48;;;;;;;;;;;16.80;99.90;;;;;;4593651;19;19927;-24
2022/05/24 03:56:19;;;;;;;;;;;16.80;99.90;;;;;;4590912;19;20259;-24
2022/05/24 03:58:02;;;;;;;;;;;16.80;99.90;;;;;;4593881;19;20038;-24
2022/05/24 03:59:33;;;;;;;;;;;16.80;99.90;;;;;;4594197;19;19911;-23
2022/05/24 04:01:04;;;;;;;;;;;16.80;99.90;;;;;;4592601;19;19929;-24
2022/05/24 04:02:35;;;;;;;;;;;16.80;99.90;;;;;;4590696;19;20455;-24
2022/05/24 04:04:06;;;;;;;;;;;16.80;99.90;;;;;;4592562;19;19933;-24
2022/05/24 04:05:37;;;;;;;;;;;16.80;99.90;;;;;;4593797;19;19915;-24
2022/05/24 04:07:08;;;;;;;;;;;16.80;99.90;;;;;;4592921;19;19927;-24
2022/05/24 04:08:39;;;;;;;;;;;16.90;99.90;;;;;;4593115;19;19919;-24
2022/05/24 04:10:11;;;;;;;;;;;16.80;99.90;;;;;;4592905;19;19952;-24
2022/05/24 04:11:42;;;;;;;;;;;16.80;99.90;;;;;;4593270;19;19915;-24
2022/05/24 04:13:13;;;;;;;;;;;16.90;99.90;;;;;;4592828;19;19915;-23
2022/05/24 04:14:43;;;;;;;;;;;16.90;99.90;;;;;;4590790;19;19947;-24
2022/05/24 04:16:15;;;;;;;;;;;16.90;99.90;;;;;;4590922;19;19978;-23
2022/05/24 04:17:47;;;;;;;;;;;16.80;99.90;;;;;;4593050;19;19921;-24
2022/05/24 04:19:17;;;;;;;;;;;16.90;99.90;;;;;;4593034;19;20290;-24
2022/05/24 04:20:48;;;;;;;;;;;16.80;99.90;;;;;;4593395;19;19929;-24
2022/05/24 04:22:19;;;;;;;;;;;16.80;99.90;;;;;;4592916;19;20322;-24
2022/05/24 04:23:50;;;;;;;;;;;16.80;99.90;;;;;;4590021;19;19922;-24
2022/05/24 04:25:21;;;;;;;;;;;16.90;99.90;;;;;;4592977;19;19970;-24
2022/05/24 04:26:52;;;;;;;;;;;16.90;99.90;;;;;;4592776;19;19914;-24
2022/05/24 04:28:23;;;;;;;;;;;16.90;99.90;;;;;;4591111;19;19918;-24
2022/05/24 04:29:54;;;;;;;;;;;16.90;99.90;;;;;;4593463;19;20274;-23
2022/05/24 04:31:25;;;;;;;;;;;16.90;99.90;;;;;;4592906;19;19974;-24
2022/05/24 04:32:56;;;;;;;;;;;16.90;99.90;;;;;;4592473;19;20333;-24
2022/05/24 04:34:27;;;;;;;;;;;16.90;99.90;;;;;;4591859;19;19921;-24
2022/05/24 04:35:58;;;;;;;;;;;16.90;99.90;;;;;;4591696;19;19919;-23
2022/05/24 04:37:29;;;;;;;;;;;16.90;99.90;;;;;;4591588;19;19922;-24
2022/05/24 04:39:00;;;;;;;;;;;16.90;99.90;;;;;;4592681;19;19926;-24
2022/05/24 04:42:21;;;;;;;;;;;16.90;99.90;;;;;;4591443;19;20325;-24
2022/05/24 04:43:52;;;;;;;;;;;16.90;99.90;;;;;;4593094;19;19926;-24
2022/05/24 04:45:23;;;;;;;;;;;16.90;99.90;;;;;;4592642;19;19982;-23
2022/05/24 04:47:10;;;;;;;;;;;17.00;99.90;;;;;;4592702;19;19923;-24
2022/05/24 04:48:41;;;;;;;;;;;17.00;99.90;;;;;;4592763;19;19918;-24
2022/05/24 04:50:12;;;;;;;;;;;17.00;99.90;;;;;;4592012;19;20333;-24
2022/05/24 04:51:43;;;;;;;;;;;17.00;99.90;;;;;;4591390;19;19930;-24
2022/05/24 04:53:15;;;;;;;;;;;17.00;99.90;;;;;;4592409;19;19990;-24
2022/05/24 04:54:46;;;;;;;;;;;17.00;99.90;;;;;;4593021;19;19922;-24
2022/05/24 04:56:16;;;;;;;;;;;17.00;99.90;;;;;;4591047;19;19918;-24
2022/05/24 04:57:47;;;;;;;;;;;17.00;99.90;;;;;;4590614;19;19925;-24
2022/05/24 04:59:19;;;;;;;;;;;17.00;99.90;;;;;;4591644;19;20325;-24
2022/05/24 05:00:49;;;;;;;;;;;17.10;99.90;;;;;;4590848;19;19948;-23
2022/05/24 05:02:20;;;;;;;;;;;17.10;99.90;;;;;;4590567;19;19926;-24
2022/05/24 05:03:51;;;;;;;;;;;17.10;99.90;;;;;;4591505;19;20333;-23
2022/05/24 05:05:22;;;;;;;;;;;17.20;99.90;;;;;;4591427;19;19952;-24
2022/05/24 05:06:53;;;;;;;;;;;17.10;99.90;;;;;;4591733;19;19918;-24
2022/05/24 05:08:24;;;;;;;;;;;17.10;99.90;;;;;;4590665;19;19929;-24
2022/05/24 05:09:55;;;;;;;;;;;17.10;99.90;;;;;;4590741;19;19945;-24
2022/05/24 05:11:26;;;;;;;;;;;17.10;99.90;;;;;;4592243;19;20330;-24
2022/05/24 05:12:57;;;;;;;;;;;17.10;99.90;;;;;;4590629;19;19925;-24
2022/05/24 05:14:28;;;;;;;;;;;17.10;99.90;;;;;;4592040;19;19919;-24
2022/05/24 05:15:59;;;;;;;;;;;17.10;99.90;;;;;;4590438;19;19919;-24
2022/05/24 05:17:30;;;;;;;;;;;17.20;99.90;;;;;;4591626;19;19990;-24
2022/05/24 05:19:01;;;;;;;;;;;17.20;99.90;;;;;;4591961;19;19918;-24
2022/05/24 05:20:32;;;;;;;;;;;17.20;99.90;;;;;;4591308;19;19966;-24
2022/05/24 05:22:03;;;;;;;;;;;17.20;99.90;;;;;;4590844;19;19911;-24
2022/05/24 05:23:34;;;;;;;;;;;17.20;99.90;;;;;;4591295;19;19939;-24
2022/05/24 05:25:06;;;;;;;;;;;17.20;99.90;;;;;;4590717;19;19923;-23
2022/05/24 05:26:37;;;;;;;;;;;17.10;99.90;;;;;;4592575;19;19919;-24
2022/05/24 05:28:08;;;;;;;;;;;17.10;99.90;;;;;;4590250;19;19921;-24
2022/05/24 05:31:29;;;;;;;;;;;17.10;99.90;;;;;;4592155;19;19970;-24
2022/05/24 05:32:59;;;;;;;;;;;17.10;99.90;;;;;;4590539;19;19922;-24
2022/05/24 05:34:30;;;;;;;;;;;17.20;99.90;;;;;;4590442;19;19918;-24
2022/05/24 05:36:01;;;;;;;;;;;17.20;99.90;;;;;;4590851;19;20013;-24
2022/05/24 05:37:33;;;;;;;;;;;17.20;99.90;;;;;;4590786;19;19922;-24
2022/05/24 05:39:03;;;;;;;;;;;17.20;99.90;;;;;;4591488;19;19926;-24
2022/05/24 05:40:34;;;;;;;;;;;17.20;99.90;;;;;;4590943;19;19917;-23
2022/05/24 05:42:06;;;;;;;;;;;17.20;99.90;;;;;;4591450;19;19922;-23
2022/05/24 05:43:36;;;;;;;;;;;17.20;99.90;;;;;;4590735;19;19921;-24
2022/05/24 05:45:10;;;;;;;;;;;17.20;99.90;;;;;;4591213;19;19915;-24
2022/05/24 05:46:41;;;;;;;;;;;17.20;99.90;;;;;;4589942;19;19970;-24
2022/05/24 05:48:12;;;;;;;;;;;17.20;99.90;;;;;;4590909;19;19930;-24
2022/05/24 05:49:43;;;;;;;;;;;17.20;99.90;;;;;;4589133;19;19943;-24
2022/05/24 05:51:15;;;;;;;;;;;17.20;99.90;;;;;;4591685;19;19982;-24
2022/05/24 05:52:46;;;;;;;;;;;17.20;99.90;;;;;;4590613;19;19946;-24
2022/05/24 05:54:17;;;;;;;;;;;17.30;99.90;;;;;;4590690;19;19966;-23
2022/05/24 05:55:48;;;;;;;;;;;17.30;99.90;;;;;;4590015;19;19919;-23
2022/05/24 05:57:19;;;;;;;;;;;17.20;99.90;;;;;;4591141;19;20506;-25
2022/05/24 05:58:50;;;;;;;;;;;17.30;99.90;;;;;;4589000;19;19965;-23
2022/05/24 06:00:21;;;;;;;;;;;17.30;99.90;;;;;;4590460;19;20271;-23
2022/05/24 06:01:55;;;;;;;;;;;17.30;99.90;;;;;;4589520;19;19918;-23
2022/05/24 06:03:26;;;;;;;;;;;17.30;99.90;;;;;;4590500;19;19933;-23
2022/05/24 06:04:56;;;;;;;;;;;16.10;99.90;;;;;;4590262;19;19934;-23
2022/05/24 06:06:30;;;;;;;4.10;3.60;;;15.30;99.90;;;;;;4590526;19;19925;-23
2022/05/24 06:08:01;;;;;;;6.13;4.10;;;15.10;99.90;;;;;;4588322;19;20075;-23
2022/05/24 06:09:32;;;;;;;4.20;3.60;;;15.10;99.90;;;;;;4588798;19;20010;-23
2022/05/24 06:11:03;;;;;;;5.80;3.83;;;15.20;99.90;;;;;;4589610;19;20029;-22
2022/05/24 06:12:35;;;;;;;5.68;4.07;;;15.20;99.90;;;;;;4589821;19;20021;-24
2022/05/24 06:14:06;;;;;;;5.70;4.10;;;15.20;99.90;;;;;;4590556;19;20027;-24
2022/05/24 06:15:37;;;;;;;5.63;3.85;;;15.30;99.90;;;;;;4590831;19;20015;-21
2022/05/24 06:17:09;;;;;;;4.73;3.60;;;15.30;99.90;;;;;;4588379;19;20506;-23
2022/05/24 06:18:40;;;;;;;5.03;3.65;;;15.40;99.90;;;;;;4590560;19;20022;-22
2022/05/24 06:20:11;;;;;;;4.05;3.25;;;15.40;99.90;;;;;;4588305;19;20018;-22
2022/05/24 06:21:42;;;;;;;4.63;3.28;;;15.50;99.90;;;;;;4588822;19;20015;-23
2022/05/24 06:23:13;;;;;;;4.68;3.30;;;15.50;99.90;;;;;;4588485;19;20360;-22
2022/05/24 06:24:46;;;;;;;4.50;3.25;;;15.60;99.90;;;;;;4589400;19;20011;-23
2022/05/24 06:26:19;;;;;;;5.50;3.50;;;15.60;99.90;;;;;;4592630;19;20816;-23
2022/05/24 06:27:51;;;;;;;4.37;2.97;;;15.70;99.90;;;;;;4592739;19;20014;-23
2022/05/24 06:29:23;;;;;;;4.13;3.40;;;15.70;99.90;;;;;;4593373;19;20018;-22
2022/05/24 06:30:55;;;;;;;4.03;3.27;;;15.80;99.90;;;;;;4594121;19;20049;-23
2022/05/24 06:32:26;;;;;;;5.15;3.00;;;15.80;99.90;;;;;;4594925;19;20104;-23
2022/05/24 06:33:57;;;;;;;4.55;3.20;;;15.80;99.90;;;;;;4593334;19;20104;-24
2022/05/24 06:35:28;;;;;;;3.92;2.80;;;15.80;99.90;;;;;;4593898;19;20011;-23
2022/05/24 06:36:59;;;;;;;4.40;3.10;;;15.80;99.90;;;;;;4593951;19;20021;-23
2022/05/24 06:38:31;;;;;;;3.95;2.60;;;15.90;99.90;;;;;;4593304;19;20015;-24
2022/05/24 06:40:03;;;;;;;4.07;2.83;;;15.80;99.90;;;;;;4593352;19;20029;-22
2022/05/24 06:41:34;;;;;;;4.60;3.13;;;15.80;99.90;;;;;;4593644;19;20018;-23
2022/05/24 06:43:05;;;;;;;4.20;2.95;;;15.90;99.90;;;;;;4594857;19;20077;-23
2022/05/24 06:44:36;;;;;;;;;;;15.90;99.90;;;;;;4594060;19;20019;-23
2022/05/24 06:46:07;;;;;;;4.10;3.07;;;15.90;99.90;;;;;;4594913;19;19984;-24
2022/05/24 06:47:40;;;;;;;3.22;2.47;;;15.90;99.90;;;;;;4594261;19;20018;-23
2022/05/24 06:49:11;;;;;;;3.77;2.73;;;15.90;99.90;;;;;;4592461;19;20018;-23
2022/05/24 06:50:42;;;;;;;3.50;2.72;;;15.90;99.90;;;;;;4592887;19;20021;-23
2022/05/24 06:52:14;;;;;;;4.22;2.92;;;16.00;99.90;;;;;;4594014;19;20383;-23
2022/05/24 06:53:46;;;;;;;3.73;2.77;;;16.00;99.90;;;;;;4593197;19;20791;-24
2022/05/24 06:55:17;;;;;;;3.47;2.70;;;16.00;99.90;;;;;;4593110;19;20074;-23
2022/05/24 06:56:48;;;;;;;4.63;3.10;;;16.00;99.90;;;;;;4594270;19;20480;-23
2022/05/24 06:58:19;;;;;;;5.45;3.13;;;16.00;99.90;;;;;;4592908;19;20018;-24
2022/05/24 07:03:30;;;;;;;6.97;5.40;;;16.00;99.90;;;;;;4593224;19;20364;-23
2022/05/24 07:05:06;;;;;;;7.90;7.10;;;16.10;99.90;;;;;;4592489;19;20015;-23
2022/05/24 07:06:37;;;;;;;4.23;3.30;;;16.10;99.90;;;;;;4589841;19;20018;-23
2022/05/24 07:08:08;;;;;;;4.17;2.77;;;16.10;99.90;;;;;;4591101;19;20033;-23
2022/05/24 07:09:40;;;;;;;4.13;3.13;;;16.10;99.90;;;;;;4590174;19;20014;-23
2022/05/24 07:11:11;;;;;;;3.47;3.05;;;16.20;99.90;;;;;;4592560;19;20476;-23
2022/05/24 07:12:42;;;;;;;4.18;3.08;;;16.20;99.90;;;;;;4591960;19;20014;-23
2022/05/24 07:14:14;;;;;;;4.07;2.80;;;16.20;99.90;;;;;;4588869;19;20048;-23
2022/05/24 07:15:45;;;;;;;5.22;2.97;;;16.20;99.90;;;;;;4591654;19;20006;-22
2022/05/24 07:17:17;;;;;;;4.17;3.20;;;16.20;99.90;;;;;;4591578;19;20023;-23
2022/05/24 07:18:48;;;;;;;3.55;2.65;;;16.20;99.90;;;;;;4593082;19;20007;-22
2022/05/24 07:20:19;;;;;;;3.63;2.78;;;16.20;99.90;;;;;;4593005;19;20066;-23
2022/05/24 07:21:50;;;;;;;3.80;3.17;;;16.20;99.90;;;;;;4594899;19;20007;-22
2022/05/24 07:23:24;;;;;;;5.07;3.30;;;16.20;99.90;;;;;;4594781;19;20011;-23
2022/05/24 07:24:55;;;;;;;5.20;3.20;;;16.20;99.90;;;;;;4595137;19;20070;-23
2022/05/24 07:26:26;;;;;;;4.15;2.80;;;16.20;99.90;;;;;;4591739;19;20054;-23
2022/05/24 07:27:57;;;;;;;3.83;2.80;;;16.20;99.90;;;;;;4593089;19;20010;-23
2022/05/24 07:29:28;;;;;;;5.05;4.00;;;16.30;99.90;;;;;;4591782;19;20006;-23
2022/05/24 07:30:59;;;;;;;4.90;3.50;;;16.30;99.90;;;;;;4593159;19;20010;-23
2022/05/24 07:32:31;;;;;;;6.05;3.28;;;16.30;99.90;;;;;;4594842;19;20066;-23
2022/05/24 07:34:02;;;;;;;5.10;3.33;;;16.30;99.90;;;;;;4592731;19;20011;-23
2022/05/24 07:35:33;;;;;;;4.43;3.45;;;16.30;99.90;;;;;;4592987;19;20468;-24
2022/05/24 07:37:09;;;;;;;4.32;2.83;;;16.30;99.90;;;;;;4590896;19;20077;-23
2022/05/24 07:38:41;;;;;;;3.73;2.50;;;16.30;99.90;;;;;;4590982;19;20433;-23
2022/05/24 07:47:18;;;;;;;5.57;3.27;;;16.40;99.90;;;;;;4592729;19;20397;-23
2022/05/24 07:48:49;;;;;;;5.60;3.25;;;16.40;99.90;;;;;;4590930;19;20018;-23
2022/05/24 07:50:20;;;;;;;4.90;2.80;;;16.40;99.90;;;;;;4591531;19;20014;-23
2022/05/24 07:51:51;;;;;;;3.83;2.58;;;16.40;99.90;;;;;;4590994;19;20045;-23
2022/05/24 07:53:22;;;;;;;3.72;2.83;;;16.40;99.90;;;;;;4591763;19;20010;-23
2022/05/24 07:54:53;;;;;;;5.10;2.97;;;16.40;99.90;;;;;;4591993;19;20018;-22
2022/05/24 07:56:25;;;;;;;3.60;2.70;;;16.40;99.90;;;;;;4591114;19;20006;-23
2022/05/24 07:57:55;;;;;;;2.80;2.47;;;16.40;99.90;;;;;;4589723;19;20010;-23
2022/05/24 07:59:26;;;;;;;4.68;2.97;;;16.50;99.90;;;;;;4589803;19;20010;-23
2022/05/24 08:00:58;;;;;;;5.10;2.63;;;16.50;99.90;;;;;;4590333;19;20449;-23
2022/05/24 08:02:29;;;;;;;5.05;3.25;;;16.50;99.90;;;;;;4590480;19;20022;-23
2022/05/24 08:04:00;;;;;;;5.38;3.80;;;16.50;99.90;;;;;;4589618;19;20016;-23
2022/05/24 08:05:32;;;;;;;4.53;3.15;;;16.50;99.90;;;;;;4589890;19;20067;-24
2022/05/24 08:07:05;;;;;;;4.00;3.33;;;16.50;99.90;;;;;;4593233;19;20334;-23
2022/05/24 08:08:37;;;;;;;9.98;7.35;;;16.50;99.90;;;;;;4586400;19;20031;-23
2022/05/24 08:10:08;;;;;;;5.07;4.47;;;16.50;99.90;;;;;;4590568;19;20409;-24
2022/05/24 08:11:39;;;;;;;4.65;3.35;;;16.50;99.90;;;;;;4591797;19;20022;-23
2022/05/24 08:13:13;;;;;;;4.65;3.03;;;16.50;99.90;;;;;;4591777;19;20035;-24
2022/05/24 08:14:46;;;;;;;4.60;3.10;;;16.50;99.90;;;;;;4590432;19;20018;-23
2022/05/24 08:16:17;;;;;;;3.78;2.97;;;16.50;99.90;;;;;;4590542;19;20014;-23
2022/05/24 08:17:48;;;;;;;6.53;3.33;;;16.50;99.90;;;;;;4588454;19;20010;-23
2022/05/24 08:19:19;;;;;;;4.20;3.28;;;16.50;99.90;;;;;;4593711;19;20010;-23
2022/05/24 08:20:51;;;;;;;4.78;3.75;;;16.50;99.90;;;;;;4593555;19;20003;-23
2022/05/24 08:22:21;;;;;;;;;;;16.50;99.90;;;;;;4594827;19;20074;-23
2022/05/24 08:23:52;;;;;;;4.88;3.00;;;16.50;99.90;;;;;;4592302;19;19919;-23
2022/05/24 08:25:24;;;;;;;6.15;3.53;;;16.50;99.90;;;;;;4590357;19;20049;-24
2022/05/24 08:26:56;;;;;;;5.23;2.93;;;16.40;99.90;;;;;;4593423;19;20070;-23
2022/05/24 08:28:28;;;;;;;3.38;2.80;;;16.40;99.90;;;;;;4593545;19;20030;-23
2022/05/24 08:29:59;;;;;;;3.80;3.03;;;16.40;99.90;;;;;;4593032;19;20330;-24
2022/05/24 08:31:30;;;;;;;4.03;3.00;;;16.40;99.90;;;;;;4592276;19;20018;-24
2022/05/24 08:33:04;;;;;;;3.88;2.63;;;16.40;99.90;;;;;;4591684;19;20018;-24
2022/05/24 08:34:35;;;;;;;3.40;2.60;;;16.50;99.90;;;;;;4593291;19;20038;-24
2022/05/24 08:36:06;;;;;;;3.05;2.35;;;16.40;99.90;;;;;;4592523;19;20010;-24
2022/05/24 08:37:38;;;;;;;4.95;2.50;;;16.40;99.90;;;;;;4590609;19;20352;-23
2022/05/24 08:39:09;;;;;;;3.50;2.60;;;16.50;99.90;;;;;;4591073;19;20049;-23
2022/05/24 08:40:42;;;;;;;3.50;2.60;;;16.50;99.90;;;;;;4591247;19;20018;-23
2022/05/24 08:42:26;;;;;;;4.20;3.00;;;16.50;99.90;;;;;;4592320;19;19999;-23
2022/05/24 08:49:43;;;;;;;3.90;2.03;;;16.50;99.90;;;;;;4587690;19;20011;-23
2022/05/24 08:51:22;;;;;;;5.35;3.00;;;16.60;99.90;;;;;;4585769;19;20469;-24
2022/05/24 08:52:59;;;;;;;3.50;2.50;;;16.60;99.90;;;;;;4588981;19;19995;-23
2022/05/24 08:54:41;;;;;;;3.50;2.47;;;16.60;99.90;;;;;;4588999;19;20407;-23
2022/05/24 08:56:34;;;;;;;3.65;2.53;;;16.60;99.90;;;;;;4587884;19;20093;-23
2022/05/24 08:58:34;;;;;;;5.05;2.90;;;16.60;99.90;;;;;;4588802;19;20019;-23
2022/05/24 09:00:13;;;;;;;3.63;2.40;;;16.70;99.90;;;;;;4588169;19;20014;-24
2022/05/24 09:01:44;;;;;;;3.33;2.60;;;16.70;99.90;;;;;;4588379;19;20011;-23
2022/05/24 09:03:15;;;;;;;;;;;16.70;99.90;;;;;;4590065;19;20505;-24
2022/05/24 09:04:46;;;;;;;2.97;2.30;;;16.70;99.90;;;;;;4588466;19;19982;-24
2022/05/24 09:06:43;;;;;;;3.35;2.10;;;16.80;99.90;;;;;;4588138;19;20014;-23
2022/05/24 09:08:29;;;;;;;3.53;2.30;;;16.80;99.90;;;;;;4588251;19;20014;-24
2022/05/24 09:10:05;;;;;;;4.55;2.47;;;16.80;99.90;;;;;;4588789;19;20420;-23
2022/05/24 09:11:45;;;;;;;3.92;2.50;;;16.80;99.90;;;;;;4589099;19;20024;-24
2022/05/24 09:14:06;;;;;;;3.92;2.60;;;16.80;99.90;;;;;;4588805;19;20005;-24